createdAt,value
2018-08-06T00:00:12.142Z,25.75
2018-08-06T00:01:12.140Z,25.75
2018-08-06T00:02:12.144Z,25.75
2018-08-06T00:03:12.187Z,25.75
2018-08-06T00:04:12.137Z,25.75
2018-08-06T00:05:12.123Z,25.75
2018-08-06T00:06:12.173Z,25.81
2018-08-06T00:07:12.140Z,25.81
2018-08-06T00:08:12.137Z,25.81
2018-08-06T00:09:12.191Z,25.75
2018-08-06T00:10:12.084Z,25.75
2018-08-06T00:11:12.245Z,25.75
2018-08-06T00:12:12.120Z,25.75
2018-08-06T00:13:12.087Z,25.75
2018-08-06T00:14:12.135Z,25.75
2018-08-06T00:15:12.101Z,25.81
2018-08-06T00:16:12.130Z,25.81
2018-08-06T00:17:12.142Z,25.81
2018-08-06T00:18:12.103Z,25.81
2018-08-06T00:19:12.126Z,25.81
2018-08-06T00:20:12.201Z,25.81
2018-08-06T00:21:12.072Z,25.81
2018-08-06T00:22:12.245Z,25.81
2018-08-06T00:23:12.096Z,25.75
2018-08-06T00:24:12.087Z,25.81
2018-08-06T00:25:12.059Z,25.75
2018-08-06T00:26:12.089Z,25.81
2018-08-06T00:27:12.117Z,25.81
2018-08-06T00:28:12.173Z,25.75
2018-08-06T00:29:12.127Z,25.81
2018-08-06T00:30:12.243Z,25.81
2018-08-06T00:31:12.135Z,25.81
2018-08-06T00:32:12.105Z,25.81
2018-08-06T00:33:12.061Z,25.81
2018-08-06T00:34:12.061Z,25.81
2018-08-06T00:35:12.105Z,25.81
2018-08-06T00:36:12.059Z,25.81
2018-08-06T00:37:12.072Z,25.75
2018-08-06T00:38:12.093Z,25.81
2018-08-06T00:39:12.028Z,25.75
2018-08-06T00:40:12.097Z,25.81
2018-08-06T00:41:12.195Z,25.81
2018-08-06T00:42:12.041Z,25.81
2018-08-06T00:43:12.079Z,25.75
2018-08-06T00:44:12.055Z,25.75
2018-08-06T00:45:12.056Z,25.81
2018-08-06T00:46:12.058Z,25.69
2018-08-06T00:47:12.051Z,25.62
2018-08-06T00:48:12.048Z,25.69
2018-08-06T00:49:12.057Z,25.62
2018-08-06T00:50:12.060Z,25.62
2018-08-06T00:51:12.019Z,25.62
2018-08-06T00:52:12.081Z,25.56
2018-08-06T00:53:12.033Z,25.62
2018-08-06T00:54:12.040Z,25.62
2018-08-06T00:55:12.216Z,25.56
2018-08-06T00:56:12.236Z,25.62
2018-08-06T00:57:12.040Z,25.56
2018-08-06T00:58:12.109Z,25.56
2018-08-06T00:59:12.024Z,25.56
2018-08-06T01:00:12.065Z,25.5
2018-08-06T01:01:12.037Z,25.5
2018-08-06T01:02:12.136Z,25.44
2018-08-06T01:03:12.182Z,25.37
2018-08-06T01:04:12.259Z,25.31
2018-08-06T01:05:12.061Z,25.25
2018-08-06T01:06:12.065Z,25.19
2018-08-06T01:07:12.151Z,25.06
2018-08-06T01:08:12.108Z,25
2018-08-06T01:09:12.150Z,25
2018-08-06T01:10:12.203Z,25
2018-08-06T01:11:12.028Z,25
2018-08-06T01:12:12.100Z,25
2018-08-06T01:13:12.121Z,25
2018-08-06T01:14:12.101Z,24.94
2018-08-06T01:15:12.148Z,24.81
2018-08-06T01:16:12.093Z,24.87
2018-08-06T01:17:12.136Z,24.87
2018-08-06T01:18:12.123Z,24.94
2018-08-06T01:19:12.150Z,24.94
2018-08-06T01:20:12.091Z,24.94
2018-08-06T01:21:12.071Z,25
2018-08-06T01:22:12.077Z,25
2018-08-06T01:23:12.087Z,25
2018-08-06T01:24:12.042Z,24.94
2018-08-06T01:25:12.095Z,25
2018-08-06T01:26:12.099Z,25
2018-08-06T01:27:12.112Z,25
2018-08-06T01:28:12.258Z,25
2018-08-06T01:29:12.074Z,24.94
2018-08-06T01:30:12.054Z,24.94
2018-08-06T01:31:12.136Z,24.94
2018-08-06T01:32:12.079Z,24.87
2018-08-06T01:33:12.169Z,24.94
2018-08-06T01:34:12.124Z,24.94
2018-08-06T01:35:12.088Z,24.87
2018-08-06T01:36:12.029Z,24.87
2018-08-06T01:37:12.124Z,24.87
2018-08-06T01:38:12.206Z,24.87
2018-08-06T01:39:12.115Z,24.94
2018-08-06T01:40:12.104Z,24.87
2018-08-06T01:41:12.194Z,24.87
2018-08-06T01:42:12.139Z,24.87
2018-08-06T01:43:12.179Z,24.94
2018-08-06T01:44:12.045Z,24.94
2018-08-06T01:45:12.128Z,24.94
2018-08-06T01:46:12.141Z,24.87
2018-08-06T01:47:12.131Z,24.94
2018-08-06T01:48:12.210Z,24.94
2018-08-06T01:49:12.096Z,24.87
2018-08-06T01:50:12.057Z,24.87
2018-08-06T01:51:12.017Z,24.87
2018-08-06T01:52:12.026Z,24.81
2018-08-06T01:53:12.055Z,24.81
2018-08-06T01:54:12.042Z,24.81
2018-08-06T01:55:12.061Z,24.81
2018-08-06T01:56:12.056Z,24.69
2018-08-06T01:57:12.071Z,24.69
2018-08-06T01:58:12.032Z,24.69
2018-08-06T01:59:12.023Z,24.63
2018-08-06T02:00:12.018Z,24.56
2018-08-06T02:01:12.080Z,24.5
2018-08-06T02:02:12.045Z,24.5
2018-08-06T02:03:12.040Z,24.44
2018-08-06T02:04:12.003Z,24.44
2018-08-06T02:05:12.011Z,24.44
2018-08-06T02:06:12.068Z,24.31
2018-08-06T02:07:12.066Z,24.37
2018-08-06T02:08:12.076Z,24.37
2018-08-06T02:09:12.045Z,24.31
2018-08-06T02:10:12.099Z,24.31
2018-08-06T02:11:12.064Z,24.25
2018-08-06T02:12:12.041Z,24.19
2018-08-06T02:13:12.094Z,24.12
2018-08-06T02:14:12.117Z,24.12
2018-08-06T02:15:12.169Z,24.06
2018-08-06T02:16:12.088Z,24
2018-08-06T02:17:12.026Z,23.94
2018-08-06T02:18:12.159Z,23.94
2018-08-06T02:19:12.116Z,24
2018-08-06T02:20:12.099Z,23.94
2018-08-06T02:21:12.193Z,23.94
2018-08-06T02:22:12.100Z,23.94
2018-08-06T02:23:12.001Z,23.94
2018-08-06T02:24:12.073Z,23.94
2018-08-06T02:25:12.113Z,23.94
2018-08-06T02:26:12.019Z,23.81
2018-08-06T02:27:12.129Z,23.87
2018-08-06T02:28:12.016Z,23.87
2018-08-06T02:29:12.057Z,23.81
2018-08-06T02:30:12.058Z,23.81
2018-08-06T02:31:12.077Z,23.75
2018-08-06T02:32:12.265Z,23.75
2018-08-06T02:33:12.181Z,23.81
2018-08-06T02:34:12.095Z,23.75
2018-08-06T02:35:12.129Z,23.69
2018-08-06T02:36:12.119Z,23.69
2018-08-06T02:37:12.112Z,23.62
2018-08-06T02:38:12.030Z,23.69
2018-08-06T02:39:12.144Z,23.69
2018-08-06T02:40:12.172Z,23.69
2018-08-06T02:41:12.224Z,23.62
2018-08-06T02:42:12.099Z,23.69
2018-08-06T02:43:12.169Z,23.56
2018-08-06T02:44:12.136Z,23.62
2018-08-06T02:45:12.121Z,23.62
2018-08-06T02:46:12.153Z,23.56
2018-08-06T02:47:12.059Z,23.62
2018-08-06T02:48:12.089Z,23.62
2018-08-06T02:49:12.039Z,23.56
2018-08-06T02:50:12.116Z,23.56
2018-08-06T02:51:12.058Z,23.56
2018-08-06T02:52:12.053Z,23.56
2018-08-06T02:53:12.193Z,23.56
2018-08-06T02:54:12.120Z,23.5
2018-08-06T02:55:12.050Z,23.5
2018-08-06T02:56:11.988Z,23.5
2018-08-06T02:57:12.017Z,23.5
2018-08-06T02:58:12.060Z,23.44
2018-08-06T02:59:12.056Z,23.38
2018-08-06T03:00:12.801Z,23.44
2018-08-06T03:01:12.104Z,23.38
2018-08-06T03:02:12.143Z,23.31
2018-08-06T03:03:12.035Z,23.31
2018-08-06T03:04:12.014Z,23.31
2018-08-06T03:05:12.030Z,23.25
2018-08-06T03:06:12.368Z,23.25
2018-08-06T03:07:12.064Z,23.12
2018-08-06T03:08:12.110Z,23.19
2018-08-06T03:09:12.016Z,23.19
2018-08-06T03:10:12.062Z,23.12
2018-08-06T03:11:12.054Z,23.12
2018-08-06T03:12:12.015Z,23.19
2018-08-06T03:13:12.017Z,23.19
2018-08-06T03:14:12.027Z,23.19
2018-08-06T03:15:12.024Z,23.19
2018-08-06T03:16:12.011Z,23.12
2018-08-06T03:17:12.052Z,23.12
2018-08-06T03:18:12.035Z,23.12
2018-08-06T03:19:12.059Z,23.12
2018-08-06T03:20:12.005Z,23.12
2018-08-06T03:21:11.998Z,23.06
2018-08-06T03:22:12.016Z,22.94
2018-08-06T03:23:12.056Z,23
2018-08-06T03:24:11.991Z,23
2018-08-06T03:25:12.010Z,23.06
2018-08-06T03:26:12.107Z,23.06
2018-08-06T03:27:12.142Z,23
2018-08-06T03:28:12.018Z,23
2018-08-06T03:29:12.042Z,23.06
2018-08-06T03:30:12.035Z,23.06
2018-08-06T03:31:12.117Z,23.06
2018-08-06T03:32:12.006Z,23.06
2018-08-06T03:33:11.995Z,23
2018-08-06T03:34:12.163Z,23
2018-08-06T03:35:12.180Z,23
2018-08-06T03:36:12.007Z,23
2018-08-06T03:37:12.021Z,23
2018-08-06T03:38:11.994Z,22.94
2018-08-06T03:39:12.275Z,22.94
2018-08-06T03:40:12.798Z,22.94
2018-08-06T03:41:12.107Z,22.87
2018-08-06T03:42:12.101Z,22.87
2018-08-06T03:43:12.511Z,22.87
2018-08-06T03:44:12.167Z,22.87
2018-08-06T03:45:12.037Z,22.87
2018-08-06T03:46:12.012Z,22.81
2018-08-06T03:47:12.046Z,22.81
2018-08-06T03:48:12.167Z,22.75
2018-08-06T03:49:12.001Z,22.75
2018-08-06T03:50:46.857Z,22.75
2018-08-06T03:51:12.144Z,22.75
2018-08-06T03:52:11.973Z,22.75
2018-08-06T03:53:12.252Z,22.75
2018-08-06T03:54:12.063Z,22.81
2018-08-06T03:55:12.083Z,22.75
2018-08-06T03:56:12.038Z,22.75
2018-08-06T03:57:12.004Z,22.75
2018-08-06T03:58:19.593Z,22.69
2018-08-06T03:59:12.158Z,22.69
2018-08-06T04:00:12.064Z,22.62
2018-08-06T04:01:12.113Z,22.62
2018-08-06T04:02:12.299Z,22.69
2018-08-06T04:03:12.095Z,22.62
2018-08-06T04:04:12.145Z,22.56
2018-08-06T04:05:12.211Z,22.56
2018-08-06T04:06:12.048Z,22.56
2018-08-06T04:07:12.147Z,22.56
2018-08-06T04:08:12.090Z,22.62
2018-08-06T04:09:12.079Z,22.56
2018-08-06T04:10:12.047Z,22.62
2018-08-06T04:11:12.024Z,22.69
2018-08-06T04:12:12.061Z,22.69
2018-08-06T04:13:12.060Z,22.69
2018-08-06T04:14:12.060Z,22.69
2018-08-06T04:15:12.088Z,22.69
2018-08-06T04:16:12.120Z,22.75
2018-08-06T04:17:12.194Z,22.75
2018-08-06T04:18:12.123Z,22.75
2018-08-06T04:19:12.065Z,22.81
2018-08-06T04:20:12.111Z,22.75
2018-08-06T04:21:12.151Z,22.81
2018-08-06T04:22:12.045Z,22.87
2018-08-06T04:23:12.114Z,22.81
2018-08-06T04:24:12.059Z,22.81
2018-08-06T04:25:12.076Z,22.87
2018-08-06T04:26:12.092Z,22.87
2018-08-06T04:27:12.018Z,22.94
2018-08-06T04:28:12.025Z,22.94
2018-08-06T04:29:12.044Z,22.94
2018-08-06T04:30:12.039Z,22.94
2018-08-06T04:31:12.053Z,22.94
2018-08-06T04:32:12.080Z,23
2018-08-06T04:33:12.897Z,23
2018-08-06T04:34:12.067Z,22.94
2018-08-06T04:35:12.203Z,23
2018-08-06T04:36:12.217Z,23
2018-08-06T04:37:12.188Z,23
2018-08-06T04:38:12.040Z,23
2018-08-06T04:39:12.125Z,23.06
2018-08-06T04:40:12.275Z,23.06
2018-08-06T04:41:12.067Z,23.12
2018-08-06T04:42:12.264Z,23.12
2018-08-06T04:43:12.146Z,23.12
2018-08-06T04:44:12.155Z,23.19
2018-08-06T04:45:12.126Z,23.19
2018-08-06T04:46:12.085Z,23.25
2018-08-06T04:47:12.197Z,23.25
2018-08-06T04:48:12.154Z,23.25
2018-08-06T04:49:12.084Z,23.25
2018-08-06T04:50:12.096Z,23.25
2018-08-06T04:51:12.137Z,23.25
2018-08-06T04:52:12.140Z,23.31
2018-08-06T04:53:12.155Z,23.31
2018-08-06T04:54:12.067Z,23.31
2018-08-06T04:55:12.098Z,23.38
2018-08-06T04:56:12.119Z,23.38
2018-08-06T04:57:12.109Z,23.38
2018-08-06T04:58:12.122Z,23.38
2018-08-06T04:59:12.186Z,23.38
2018-08-06T05:00:12.220Z,23.38
2018-08-06T05:01:12.099Z,23.38
2018-08-06T05:02:12.055Z,23.38
2018-08-06T05:03:12.062Z,23.38
2018-08-06T05:04:12.214Z,23.38
2018-08-06T05:05:12.118Z,23.38
2018-08-06T05:06:12.105Z,23.38
2018-08-06T05:07:12.101Z,23.38
2018-08-06T05:08:12.105Z,23.38
2018-08-06T05:09:12.113Z,23.44
2018-08-06T05:10:12.160Z,23.44
2018-08-06T05:11:12.167Z,23.38
2018-08-06T05:12:12.085Z,23.44
2018-08-06T05:13:12.140Z,23.44
2018-08-06T05:14:12.149Z,23.44
2018-08-06T05:15:12.117Z,23.5
2018-08-06T05:16:12.236Z,23.44
2018-08-06T05:17:12.404Z,23.5
2018-08-06T05:18:12.102Z,23.56
2018-08-06T05:19:12.128Z,23.5
2018-08-06T05:20:12.127Z,23.56
2018-08-06T05:21:12.100Z,23.56
2018-08-06T05:22:12.089Z,23.56
2018-08-06T05:23:12.254Z,23.56
2018-08-06T05:24:12.178Z,23.56
2018-08-06T05:25:12.203Z,23.62
2018-08-06T05:26:12.135Z,23.62
2018-08-06T05:27:12.136Z,23.62
2018-08-06T05:28:12.118Z,23.62
2018-08-06T05:29:12.186Z,23.69
2018-08-06T05:30:12.153Z,23.69
2018-08-06T05:31:12.392Z,23.69
2018-08-06T05:32:12.169Z,23.69
2018-08-06T05:33:12.138Z,23.69
2018-08-06T05:34:12.109Z,23.69
2018-08-06T05:35:12.164Z,23.69
2018-08-06T05:36:12.156Z,23.75
2018-08-06T05:37:12.127Z,23.75
2018-08-06T05:38:12.216Z,23.75
2018-08-06T05:39:12.172Z,23.75
2018-08-06T05:40:12.270Z,23.75
2018-08-06T05:41:12.277Z,23.75
2018-08-06T05:42:12.136Z,23.81
2018-08-06T05:43:12.147Z,23.81
2018-08-06T05:44:12.389Z,23.75
2018-08-06T05:45:12.189Z,23.81
2018-08-06T05:46:12.151Z,23.81
2018-08-06T05:47:12.275Z,23.81
2018-08-06T05:48:12.481Z,23.81
2018-08-06T05:49:12.289Z,23.81
2018-08-06T05:50:12.194Z,23.81
2018-08-06T05:51:12.138Z,23.81
2018-08-06T05:52:12.231Z,23.75
2018-08-06T05:53:12.200Z,23.81
2018-08-06T05:54:12.181Z,23.81
2018-08-06T05:55:12.223Z,23.81
2018-08-06T05:56:12.177Z,23.81
2018-08-06T05:57:12.184Z,23.81
2018-08-06T05:58:12.455Z,23.81
2018-08-06T05:59:12.339Z,23.87
2018-08-06T06:00:12.160Z,23.87
2018-08-06T06:01:12.376Z,23.87
2018-08-06T06:02:13.968Z,23.94
2018-08-06T06:03:12.554Z,23.94
2018-08-06T06:04:12.245Z,23.87
2018-08-06T06:05:12.954Z,23.87
2018-08-06T06:06:13.008Z,23.87
2018-08-06T06:07:13.103Z,23.94
2018-08-06T06:08:12.408Z,23.94
2018-08-06T06:09:12.161Z,23.94
2018-08-06T06:10:12.172Z,24
2018-08-06T06:11:12.255Z,24
2018-08-06T06:12:12.246Z,23.94
2018-08-06T06:13:12.177Z,24
2018-08-06T06:14:12.190Z,24
2018-08-06T06:15:12.215Z,24
2018-08-06T06:16:17.182Z,24.06
2018-08-06T06:17:12.448Z,24
2018-08-06T06:18:12.186Z,24
2018-08-06T06:19:12.649Z,24.06
2018-08-06T06:20:12.177Z,24.06
2018-08-06T06:21:14.828Z,24.12
2018-08-06T06:22:12.175Z,24.19
2018-08-06T06:23:12.364Z,24.19
2018-08-06T06:24:12.246Z,24.25
2018-08-06T06:25:12.270Z,24.31
2018-08-06T06:26:12.214Z,24.31
2018-08-06T06:27:12.380Z,24.31
2018-08-06T06:28:12.341Z,24.31
2018-08-06T06:29:12.215Z,24.31
2018-08-06T06:30:12.895Z,24.31
2018-08-06T06:31:12.312Z,24.37
2018-08-06T06:32:12.356Z,24.31
2018-08-06T06:33:12.238Z,24.37
2018-08-06T06:34:12.363Z,24.37
2018-08-06T06:35:12.264Z,24.37
2018-08-06T06:36:12.245Z,24.44
2018-08-06T06:37:12.260Z,24.44
2018-08-06T06:38:12.225Z,24.44
2018-08-06T06:39:12.259Z,24.5
2018-08-06T06:40:12.224Z,24.44
2018-08-06T06:41:12.432Z,24.5
2018-08-06T06:42:12.224Z,24.5
2018-08-06T06:43:12.387Z,24.44
2018-08-06T06:44:12.213Z,24.5
2018-08-06T06:45:12.265Z,24.5
2018-08-06T06:46:12.234Z,24.5
2018-08-06T06:47:12.285Z,24.56
2018-08-06T06:48:12.248Z,24.56
2018-08-06T06:49:12.788Z,24.63
2018-08-06T06:50:12.260Z,24.63
2018-08-06T06:51:12.329Z,24.69
2018-08-06T06:52:12.307Z,24.69
2018-08-06T06:53:12.246Z,24.69
2018-08-06T06:54:12.231Z,24.69
2018-08-06T06:55:12.234Z,24.69
2018-08-06T06:56:12.269Z,24.75
2018-08-06T06:57:12.275Z,24.81
2018-08-06T06:58:12.288Z,24.81
2018-08-06T06:59:12.250Z,24.87
2018-08-06T07:00:12.326Z,24.87
2018-08-06T07:01:12.256Z,24.94
2018-08-06T07:02:12.237Z,24.94
2018-08-06T07:03:12.244Z,25
2018-08-06T07:04:12.236Z,25
2018-08-06T07:05:12.265Z,25.06
2018-08-06T07:06:12.251Z,25.06
2018-08-06T07:07:12.287Z,25.06
2018-08-06T07:08:12.265Z,25.12
2018-08-06T07:09:12.354Z,25.12
2018-08-06T07:10:12.312Z,25.19
2018-08-06T07:11:12.327Z,25.12
2018-08-06T07:12:12.274Z,25.12
2018-08-06T07:13:12.261Z,25.19
2018-08-06T07:14:12.423Z,25.25
2018-08-06T07:15:12.323Z,25.25
2018-08-06T07:16:12.340Z,25.25
2018-08-06T07:17:12.261Z,25.25
2018-08-06T07:18:12.447Z,25.31
2018-08-06T07:19:12.533Z,25.31
2018-08-06T07:20:12.626Z,25.31
2018-08-06T07:21:12.275Z,25.37
2018-08-06T07:22:12.287Z,25.44
2018-08-06T07:23:12.482Z,25.44
2018-08-06T07:24:12.256Z,25.5
2018-08-06T07:25:12.246Z,25.56
2018-08-06T07:26:12.278Z,25.56
2018-08-06T07:27:12.272Z,25.62
2018-08-06T07:28:12.278Z,25.69
2018-08-06T07:29:12.352Z,25.69
2018-08-06T07:30:12.322Z,25.75
2018-08-06T07:31:12.298Z,25.69
2018-08-06T07:32:12.306Z,25.75
2018-08-06T07:33:12.344Z,25.75
2018-08-06T07:34:12.544Z,25.75
2018-08-06T07:35:12.251Z,25.81
2018-08-06T07:36:12.391Z,25.81
2018-08-06T07:37:12.343Z,25.88
2018-08-06T07:38:12.280Z,25.88
2018-08-06T07:39:12.287Z,25.94
2018-08-06T07:40:12.766Z,25.94
2018-08-06T07:41:12.375Z,26
2018-08-06T07:42:12.475Z,26
2018-08-06T07:43:12.778Z,26
2018-08-06T07:44:12.263Z,26.06
2018-08-06T07:45:12.299Z,26.12
2018-08-06T07:46:12.548Z,26.12
2018-08-06T07:47:12.337Z,26.19
2018-08-06T07:48:12.309Z,26.19
2018-08-06T07:49:12.360Z,26.19
2018-08-06T07:50:12.460Z,26.19
2018-08-06T07:51:12.267Z,26.19
2018-08-06T07:52:12.304Z,26.19
2018-08-06T07:53:12.354Z,26.25
2018-08-06T07:54:12.504Z,26.19
2018-08-06T07:55:12.325Z,26.19
2018-08-06T07:56:12.292Z,26.25
2018-08-06T07:57:12.333Z,26.25
2018-08-06T07:58:12.395Z,26.25
2018-08-06T07:59:12.567Z,26.31
2018-08-06T08:00:12.295Z,26.37
2018-08-06T08:01:12.266Z,26.37
2018-08-06T08:02:12.301Z,26.37
2018-08-06T08:03:12.298Z,26.44
2018-08-06T08:04:12.407Z,26.44
2018-08-06T08:05:12.312Z,26.5
2018-08-06T08:06:12.344Z,26.5
2018-08-06T08:07:12.305Z,26.5
2018-08-06T08:08:12.304Z,26.5
2018-08-06T08:09:12.342Z,26.5
2018-08-06T08:10:12.313Z,26.56
2018-08-06T08:11:12.330Z,26.56
2018-08-06T08:12:12.341Z,26.5
2018-08-06T08:13:12.306Z,26.56
2018-08-06T08:14:12.314Z,26.56
2018-08-06T08:15:12.305Z,26.56
2018-08-06T08:16:12.356Z,26.62
2018-08-06T08:17:12.332Z,26.62
2018-08-06T08:18:12.321Z,26.56
2018-08-06T08:19:12.315Z,26.62
2018-08-06T08:20:14.394Z,26.62
2018-08-06T08:21:12.379Z,26.69
2018-08-06T08:22:12.357Z,26.69
2018-08-06T08:23:12.385Z,26.81
2018-08-06T08:24:12.346Z,26.81
2018-08-06T08:25:12.342Z,26.87
2018-08-06T08:26:12.460Z,26.87
2018-08-06T08:27:12.472Z,26.94
2018-08-06T08:28:12.376Z,26.94
2018-08-06T08:29:12.455Z,27
2018-08-06T08:30:12.340Z,27
2018-08-06T08:31:12.411Z,27.06
2018-08-06T08:32:12.422Z,27.06
2018-08-06T08:33:12.403Z,27.13
2018-08-06T08:34:12.384Z,27.13
2018-08-06T08:35:12.635Z,27.19
2018-08-06T08:36:12.534Z,27.19
2018-08-06T08:37:12.382Z,27.19
2018-08-06T08:38:12.394Z,27.31
2018-08-06T08:39:12.357Z,27.31
2018-08-06T08:40:12.422Z,27.31
2018-08-06T08:41:12.382Z,27.37
2018-08-06T08:42:12.533Z,27.37
2018-08-06T08:43:13.302Z,27.37
2018-08-06T08:44:12.368Z,27.31
2018-08-06T08:45:12.704Z,27.37
2018-08-06T08:46:12.435Z,27.44
2018-08-06T08:47:12.433Z,27.44
2018-08-06T08:48:12.414Z,27.44
2018-08-06T08:49:12.453Z,27.5
2018-08-06T08:50:12.660Z,27.5
2018-08-06T08:51:12.377Z,27.5
2018-08-06T08:52:12.474Z,27.56
2018-08-06T08:53:12.376Z,27.62
2018-08-06T08:54:12.551Z,27.62
2018-08-06T08:55:12.426Z,27.69
2018-08-06T08:56:12.480Z,27.75
2018-08-06T08:57:12.639Z,27.69
2018-08-06T08:58:12.640Z,27.75
2018-08-06T08:59:12.401Z,27.81
2018-08-06T09:00:12.404Z,27.81
2018-08-06T09:01:12.427Z,27.87
2018-08-06T09:02:12.389Z,27.94
2018-08-06T09:03:12.463Z,27.94
2018-08-06T09:04:12.390Z,27.94
2018-08-06T09:05:12.399Z,28
2018-08-06T09:06:12.415Z,28
2018-08-06T09:07:12.744Z,28
2018-08-06T09:08:12.478Z,28
2018-08-06T09:09:12.392Z,28.06
2018-08-06T09:10:12.410Z,28.06
2018-08-06T09:11:12.531Z,28.12
2018-08-06T09:12:12.524Z,28.12
2018-08-06T09:13:12.471Z,28.12
2018-08-06T09:14:12.744Z,28.19
2018-08-06T09:15:12.488Z,28.19
2018-08-06T09:16:12.427Z,28.25
2018-08-06T09:17:12.444Z,28.25
2018-08-06T09:18:12.431Z,28.31
2018-08-06T09:19:12.417Z,28.31
2018-08-06T09:20:12.457Z,28.38
2018-08-06T09:21:13.068Z,28.38
2018-08-06T09:22:12.446Z,28.44
2018-08-06T09:23:12.456Z,28.44
2018-08-06T09:24:12.421Z,28.5
2018-08-06T09:25:12.499Z,28.44
2018-08-06T09:26:12.451Z,28.44
2018-08-06T09:27:12.438Z,28.5
2018-08-06T09:28:12.432Z,28.5
2018-08-06T09:29:12.467Z,28.62
2018-08-06T09:30:12.416Z,28.62
2018-08-06T09:31:12.481Z,28.62
2018-08-06T09:32:12.457Z,28.69
2018-08-06T09:33:12.451Z,28.69
2018-08-06T09:34:12.407Z,28.69
2018-08-06T09:35:12.415Z,28.75
2018-08-06T09:36:12.414Z,28.81
2018-08-06T09:37:12.506Z,28.81
2018-08-06T09:38:12.451Z,28.87
2018-08-06T09:39:12.450Z,28.87
2018-08-06T09:40:12.476Z,28.94
2018-08-06T09:41:12.508Z,29
2018-08-06T09:42:12.525Z,29
2018-08-06T09:43:12.441Z,29.06
2018-08-06T09:44:12.512Z,29.19
2018-08-06T09:45:12.488Z,29.12
2018-08-06T09:46:12.496Z,29.25
2018-08-06T09:47:12.742Z,29.25
2018-08-06T09:48:12.427Z,29.25
2018-08-06T09:49:12.419Z,29.31
2018-08-06T09:50:12.556Z,29.31
2018-08-06T09:51:12.543Z,29.37
2018-08-06T09:52:12.448Z,29.37
2018-08-06T09:53:12.490Z,29.44
2018-08-06T09:54:12.496Z,29.5
2018-08-06T09:55:12.463Z,29.5
2018-08-06T09:56:12.443Z,29.56
2018-08-06T09:57:13.591Z,29.56
2018-08-06T09:58:12.433Z,29.56
2018-08-06T09:59:12.502Z,29.63
2018-08-06T10:00:12.920Z,29.63
2018-08-06T10:01:12.429Z,29.63
2018-08-06T10:02:12.486Z,29.56
2018-08-06T10:03:12.471Z,29.56
2018-08-06T10:04:13.274Z,29.56
2018-08-06T10:05:12.469Z,29.63
2018-08-06T10:06:14.168Z,29.69
2018-08-06T10:07:12.446Z,29.69
2018-08-06T10:08:12.636Z,29.81
2018-08-06T10:09:12.449Z,29.87
2018-08-06T10:10:12.899Z,29.94
2018-08-06T10:11:13.142Z,30
2018-08-06T10:12:12.640Z,30.06
2018-08-06T10:13:12.514Z,30.06
2018-08-06T10:14:12.527Z,30.12
2018-08-06T10:15:12.460Z,30.19
2018-08-06T10:16:12.487Z,30.19
2018-08-06T10:17:12.467Z,30.25
2018-08-06T10:18:12.501Z,30.31
2018-08-06T10:19:14.156Z,30.37
2018-08-06T10:20:12.577Z,30.37
2018-08-06T10:21:12.612Z,30.44
2018-08-06T10:22:12.611Z,30.44
2018-08-06T10:23:12.564Z,30.5
2018-08-06T10:24:12.546Z,30.5
2018-08-06T10:25:12.519Z,30.56
2018-08-06T10:26:12.495Z,30.56
2018-08-06T10:27:12.535Z,30.62
2018-08-06T10:28:12.641Z,30.62
2018-08-06T10:29:12.684Z,30.69
2018-08-06T10:30:13.115Z,30.75
2018-08-06T10:31:12.559Z,30.75
2018-08-06T10:32:12.492Z,30.81
2018-08-06T10:33:12.545Z,30.81
2018-08-06T10:34:12.500Z,30.88
2018-08-06T10:35:12.574Z,30.88
2018-08-06T10:36:12.483Z,30.94
2018-08-06T10:37:12.534Z,30.94
2018-08-06T10:38:12.533Z,30.94
2018-08-06T10:39:12.564Z,30.94
2018-08-06T10:40:12.874Z,30.94
2018-08-06T10:41:12.492Z,30.94
2018-08-06T10:42:12.582Z,31
2018-08-06T10:43:12.524Z,31
2018-08-06T10:44:12.501Z,31.06
2018-08-06T10:45:12.592Z,31.12
2018-08-06T10:46:12.534Z,31.19
2018-08-06T10:47:12.532Z,31.19
2018-08-06T10:48:12.944Z,31.19
2018-08-06T10:49:12.528Z,31.25
2018-08-06T10:50:12.543Z,31.19
2018-08-06T10:51:12.506Z,31.19
2018-08-06T10:52:12.896Z,31.19
2018-08-06T10:53:12.698Z,31.25
2018-08-06T10:54:12.834Z,31.31
2018-08-06T10:55:12.732Z,31.31
2018-08-06T10:56:12.616Z,31.31
2018-08-06T10:57:12.676Z,31.37
2018-08-06T10:58:12.762Z,31.44
2018-08-06T10:59:12.686Z,31.44
2018-08-06T11:00:12.570Z,31.5
2018-08-06T11:01:12.949Z,31.5
2018-08-06T11:02:12.538Z,31.56
2018-08-06T11:03:12.660Z,31.56
2018-08-06T11:04:12.663Z,31.62
2018-08-06T11:05:13.113Z,31.69
2018-08-06T11:06:12.617Z,31.75
2018-08-06T11:07:12.646Z,31.75
2018-08-06T11:08:12.682Z,31.81
2018-08-06T11:09:12.618Z,31.81
2018-08-06T11:10:12.925Z,31.87
2018-08-06T11:11:12.590Z,31.94
2018-08-06T11:12:12.718Z,31.94
2018-08-06T11:13:12.613Z,32
2018-08-06T11:14:13.489Z,32.06
2018-08-06T11:15:12.604Z,32.06
2018-08-06T11:16:12.632Z,32.13
2018-08-06T11:17:13.072Z,32.19
2018-08-06T11:18:12.596Z,32.19
2018-08-06T11:19:12.767Z,32.25
2018-08-06T11:20:12.739Z,32.31
2018-08-06T11:21:12.697Z,32.31
2018-08-06T11:22:12.630Z,32.31
2018-08-06T11:23:12.601Z,32.38
2018-08-06T11:24:12.629Z,32.38
2018-08-06T11:25:12.625Z,32.38
2018-08-06T11:26:12.641Z,32.38
2018-08-06T11:27:12.633Z,32.44
2018-08-06T11:28:12.873Z,32.44
2018-08-06T11:29:12.667Z,32.44
2018-08-06T11:30:12.633Z,32.5
2018-08-06T11:31:12.601Z,32.5
2018-08-06T11:32:12.637Z,32.56
2018-08-06T11:33:12.599Z,32.56
2018-08-06T11:34:12.595Z,32.63
2018-08-06T11:35:12.572Z,32.63
2018-08-06T11:36:12.708Z,32.63
2018-08-06T11:37:12.661Z,32.69
2018-08-06T11:38:12.593Z,32.69
2018-08-06T11:39:12.600Z,32.69
2018-08-06T11:40:12.598Z,32.75
2018-08-06T11:41:12.578Z,32.75
2018-08-06T11:42:12.635Z,32.81
2018-08-06T11:43:12.669Z,32.81
2018-08-06T11:44:12.605Z,32.81
2018-08-06T11:45:12.601Z,32.81
2018-08-06T11:46:12.645Z,32.88
2018-08-06T11:47:12.610Z,32.88
2018-08-06T11:48:12.622Z,32.94
2018-08-06T11:49:12.669Z,33
2018-08-06T11:50:12.791Z,33
2018-08-06T11:51:12.642Z,33
2018-08-06T11:52:12.733Z,33
2018-08-06T11:53:12.618Z,33.06
2018-08-06T11:54:12.652Z,33.06
2018-08-06T11:55:13.765Z,33.06
2018-08-06T11:56:12.625Z,33.13
2018-08-06T11:57:12.600Z,33.06
2018-08-06T11:58:12.985Z,33.13
2018-08-06T11:59:12.648Z,33.19
2018-08-06T12:00:12.594Z,33.06
2018-08-06T12:01:12.604Z,33.06
2018-08-06T12:02:12.623Z,33
2018-08-06T12:03:12.655Z,33
2018-08-06T12:04:12.645Z,33.06
2018-08-06T12:05:12.615Z,33.06
2018-08-06T12:06:12.624Z,33.19
2018-08-06T12:07:12.681Z,33.19
2018-08-06T12:08:12.644Z,33.19
2018-08-06T12:09:12.702Z,33.13
2018-08-06T12:10:12.671Z,33.13
2018-08-06T12:11:12.656Z,33.19
2018-08-06T12:12:12.651Z,33.25
2018-08-06T12:13:12.639Z,33.31
2018-08-06T12:14:12.705Z,33.38
2018-08-06T12:15:13.506Z,33.44
2018-08-06T12:16:12.643Z,33.44
2018-08-06T12:17:12.683Z,33.5
2018-08-06T12:18:12.813Z,33.5
2018-08-06T12:19:12.738Z,33.56
2018-08-06T12:20:12.823Z,33.56
2018-08-06T12:21:12.713Z,33.56
2018-08-06T12:22:12.693Z,33.63
2018-08-06T12:23:12.669Z,33.63
2018-08-06T12:24:12.714Z,33.56
2018-08-06T12:25:12.953Z,33.44
2018-08-06T12:26:13.766Z,33.5
2018-08-06T12:27:12.945Z,33.5
2018-08-06T12:28:12.673Z,33.56
2018-08-06T12:29:12.957Z,33.63
2018-08-06T12:30:12.995Z,33.63
2018-08-06T12:31:13.300Z,33.69
2018-08-06T12:32:12.671Z,33.69
2018-08-06T12:33:12.902Z,33.69
2018-08-06T12:34:12.662Z,33.75
2018-08-06T12:35:13.001Z,33.81
2018-08-06T12:36:12.747Z,33.81
2018-08-06T12:37:12.654Z,33.81
2018-08-06T12:38:13.535Z,33.88
2018-08-06T12:39:12.716Z,33.94
2018-08-06T12:40:12.794Z,33.81
2018-08-06T12:41:12.665Z,33.75
2018-08-06T12:42:12.793Z,33.81
2018-08-06T12:43:12.828Z,33.75
2018-08-06T12:44:12.669Z,33.81
2018-08-06T12:45:12.689Z,33.81
2018-08-06T12:46:13.371Z,33.81
2018-08-06T12:47:12.752Z,33.81
2018-08-06T12:48:12.778Z,33.88
2018-08-06T12:49:12.672Z,33.75
2018-08-06T12:50:12.832Z,33.81
2018-08-06T12:51:13.041Z,33.81
2018-08-06T12:52:12.834Z,33.81
2018-08-06T12:53:12.762Z,33.81
2018-08-06T12:54:12.706Z,33.88
2018-08-06T12:55:12.758Z,33.94
2018-08-06T12:56:12.871Z,33.94
2018-08-06T12:57:13.288Z,33.94
2018-08-06T12:58:12.723Z,34.06
2018-08-06T12:59:12.704Z,34.13